Mars Hill, ME (04758)

2:44 AM EST on November 23, 2014 (GMT -0500)
West Road | Change Station
CLOSE
Current Station
Personal Weather Station
Location: Monticello, ME
Elevation: 656 ft
Nearby Weather Stations

Elev 656 ft 46.34 °N, 67.89 °W | Updated 12 seconds ago

Overcast
Overcast
28.5 °F
Feels Like 28 °F
N
0.0
Wind Variable Wind from South
Gusts 0.0 mph

Today
High -- | Low -- °F
--% Chance of Precip.
Yesterday
High -- | Low -- °F
Precip. -- in
6:44 AM 3:50 PM
New Moon, 1% visible
Pressure 29.80 in
Visibility 10.0 miles
Clouds Mostly Cloudy 3000 ft
Overcast 3600 ft
Windchill 28 °F
Dew Point 22 °F
Humidity 75%
Rainfall 0.00 in
Snow Depth Not available.
UV 0 out of 12
Pollen .10 out of 12
Air Quality Not available.
Flu Activity Not available.
METAR KPQI 230735Z AUTO 23004KT 10SM BKN030 OVC036 01/M04 A2980 RMK AO1

More Conditions Fewer Conditions

Pressure 29.80 in
Visibility 10.0 miles
Clouds Mostly Cloudy 3000 ft
Overcast 3600 ft
Windchill 28 °F
Dew Point 22 °F
Humidity 75%
Rainfall 0.00 in
Snow Depth Not available.
UV 0 out of 12
Pollen .10 out of 12
Air Quality Not available.
Flu Activity Not available.
METAR KPQI 230735Z AUTO 23004KT 10SM BKN030 OVC036 01/M04 A2980 RMK AO1

More Conditions Fewer Conditions

10-Day Weather Forecast

Almanac

Astronomy

Nov. 23, 2014 Rise Set
Actual Time
Civil Twilight
Nautical Twilight
Astronomical Twilight
Moon
Length of Visible Light
Length of Day
Tomorrow will be .
, % of the Moon is Illuminated

Today's Extremes

State Highs State Lows

Community

WunderPhotos

Upload Photos

1,773,024 photos uploaded!

WunderBlogs® & News

Nearby

Air Quality

  Air Quality AQ Index Pollutant
Not available.

Snow Depth

Station Depth Elevation

Earthquake Activity

City Distance Mag. Time & Date
Minimum magnitude displayed is 2.5.

Coastal Water Temperatures

Place Temperature

Nearby Weather Stations